sensor_id;sensor_type;location;lat;lon;timestamp;P1;durP1;ratioP1;P2;durP2;ratioP2
20589;SDS011;10453;50.810;12.540;2023-04-01T00:00:35;3.47;;;1.20;;
20589;SDS011;10453;50.810;12.540;2023-04-01T00:04:53;3.92;;;1.10;;
20589;SDS011;10453;50.810;12.540;2023-04-01T00:09:10;2.95;;;1.08;;
20589;SDS011;10453;50.810;12.540;2023-04-01T00:13:27;2.83;;;0.93;;
20589;SDS011;10453;50.810;12.540;2023-04-01T00:17:45;3.03;;;1.52;;
20589;SDS011;10453;50.810;12.540;2023-04-01T00:22:02;4.60;;;1.08;;
20589;SDS011;10453;50.810;12.540;2023-04-01T00:26:20;6.28;;;1.33;;
20589;SDS011;10453;50.810;12.540;2023-04-01T00:34:56;3.10;;;1.33;;
20589;SDS011;10453;50.810;12.540;2023-04-01T00:39:16;3.97;;;1.10;;
20589;SDS011;10453;50.810;12.540;2023-04-01T00:43:33;6.10;;;1.38;;
20589;SDS011;10453;50.810;12.540;2023-04-01T00:47:52;4.28;;;0.88;;
20589;SDS011;10453;50.810;12.540;2023-04-01T00:52:11;3.97;;;1.20;;
20589;SDS011;10453;50.810;12.540;2023-04-01T00:56:32;8.82;;;1.33;;
20589;SDS011;10453;50.810;12.540;2023-04-01T01:00:53;5.05;;;1.23;;
20589;SDS011;10453;50.810;12.540;2023-04-01T01:05:13;2.95;;;1.00;;
20589;SDS011;10453;50.810;12.540;2023-04-01T01:14:01;5.82;;;1.20;;
20589;SDS011;10453;50.810;12.540;2023-04-01T01:23:38;4.13;;;1.17;;
20589;SDS011;10453;50.810;12.540;2023-04-01T01:28:15;3.70;;;1.33;;
20589;SDS011;10453;50.810;12.540;2023-04-01T01:32:52;4.53;;;1.20;;
20589;SDS011;10453;50.810;12.540;2023-04-01T01:37:26;5.47;;;1.52;;
20589;SDS011;10453;50.810;12.540;2023-04-01T01:41:46;4.53;;;1.23;;
20589;SDS011;10453;50.810;12.540;2023-04-01T01:46:07;5.80;;;1.50;;
20589;SDS011;10453;50.810;12.540;2023-04-01T01:50:28;4.43;;;1.25;;
20589;SDS011;10453;50.810;12.540;2023-04-01T01:54:52;4.43;;;1.33;;
20589;SDS011;10453;50.810;12.540;2023-04-01T01:59:11;5.18;;;1.30;;
20589;SDS011;10453;50.810;12.540;2023-04-01T02:03:31;5.78;;;1.25;;
20589;SDS011;10453;50.810;12.540;2023-04-01T02:07:58;5.60;;;1.45;;
20589;SDS011;10453;50.810;12.540;2023-04-01T02:12:17;6.25;;;1.40;;
20589;SDS011;10453;50.810;12.540;2023-04-01T02:16:39;7.60;;;1.80;;
20589;SDS011;10453;50.810;12.540;2023-04-01T02:20:59;3.70;;;1.20;;
20589;SDS011;10453;50.810;12.540;2023-04-01T02:25:18;6.20;;;1.40;;
20589;SDS011;10453;50.810;12.540;2023-04-01T02:29:41;5.97;;;1.83;;
20589;SDS011;10453;50.810;12.540;2023-04-01T02:33:58;5.18;;;1.42;;
20589;SDS011;10453;50.810;12.540;2023-04-01T02:38:16;5.20;;;1.40;;
20589;SDS011;10453;50.810;12.540;2023-04-01T02:42:33;8.25;;;1.15;;
20589;SDS011;10453;50.810;12.540;2023-04-01T02:46:51;5.88;;;1.00;;
20589;SDS011;10453;50.810;12.540;2023-04-01T02:51:09;4.95;;;1.50;;
20589;SDS011;10453;50.810;12.540;2023-04-01T02:55:26;4.47;;;1.33;;
20589;SDS011;10453;50.810;12.540;2023-04-01T02:59:44;6.28;;;1.25;;
20589;SDS011;10453;50.810;12.540;2023-04-01T03:04:01;4.80;;;1.55;;
20589;SDS011;10453;50.810;12.540;2023-04-01T03:08:19;4.88;;;1.42;;
20589;SDS011;10453;50.810;12.540;2023-04-01T03:12:36;6.78;;;1.20;;
20589;SDS011;10453;50.810;12.540;2023-04-01T03:16:53;3.58;;;1.35;;
20589;SDS011;10453;50.810;12.540;2023-04-01T03:21:32;3.83;;;1.03;;
20589;SDS011;10453;50.810;12.540;2023-04-01T03:25:49;4.00;;;1.23;;
20589;SDS011;10453;50.810;12.540;2023-04-01T03:30:07;2.70;;;1.17;;
20589;SDS011;10453;50.810;12.540;2023-04-01T03:34:26;4.57;;;1.23;;
20589;SDS011;10453;50.810;12.540;2023-04-01T03:38:44;4.82;;;1.15;;
20589;SDS011;10453;50.810;12.540;2023-04-01T03:43:01;5.38;;;1.27;;
20589;SDS011;10453;50.810;12.540;2023-04-01T03:47:19;4.37;;;1.13;;
20589;SDS011;10453;50.810;12.540;2023-04-01T03:51:41;4.93;;;1.10;;
20589;SDS011;10453;50.810;12.540;2023-04-01T03:56:03;3.83;;;1.20;;
20589;SDS011;10453;50.810;12.540;2023-04-01T04:00:22;5.88;;;1.50;;
20589;SDS011;10453;50.810;12.540;2023-04-01T04:04:39;4.85;;;1.10;;
20589;SDS011;10453;50.810;12.540;2023-04-01T04:13:15;4.60;;;1.10;;
20589;SDS011;10453;50.810;12.540;2023-04-01T04:17:32;4.28;;;1.10;;
20589;SDS011;10453;50.810;12.540;2023-04-01T04:21:50;3.08;;;1.00;;
20589;SDS011;10453;50.810;12.540;2023-04-01T04:26:08;3.75;;;1.00;;
20589;SDS011;10453;50.810;12.540;2023-04-01T04:30:27;7.47;;;1.05;;
20589;SDS011;10453;50.810;12.540;2023-04-01T04:34:45;7.13;;;1.10;;
20589;SDS011;10453;50.810;12.540;2023-04-01T04:39:02;5.18;;;1.13;;
20589;SDS011;10453;50.810;12.540;2023-04-01T04:43:20;4.22;;;1.00;;
20589;SDS011;10453;50.810;12.540;2023-04-01T04:47:37;4.25;;;1.30;;
20589;SDS011;10453;50.810;12.540;2023-04-01T04:51:55;4.90;;;1.38;;
20589;SDS011;10453;50.810;12.540;2023-04-01T04:56:12;4.72;;;1.30;;
20589;SDS011;10453;50.810;12.540;2023-04-01T05:00:29;5.57;;;1.02;;
20589;SDS011;10453;50.810;12.540;2023-04-01T05:04:47;3.88;;;1.30;;
20589;SDS011;10453;50.810;12.540;2023-04-01T05:09:04;5.32;;;1.10;;
20589;SDS011;10453;50.810;12.540;2023-04-01T05:13:21;3.30;;;1.13;;
20589;SDS011;10453;50.810;12.540;2023-04-01T05:17:39;6.32;;;1.33;;
20589;SDS011;10453;50.810;12.540;2023-04-01T05:21:56;2.58;;;1.27;;
20589;SDS011;10453;50.810;12.540;2023-04-01T05:26:14;4.95;;;1.30;;
20589;SDS011;10453;50.810;12.540;2023-04-01T05:30:31;4.10;;;1.08;;
20589;SDS011;10453;50.810;12.540;2023-04-01T05:34:52;5.28;;;0.93;;
20589;SDS011;10453;50.810;12.540;2023-04-01T05:39:10;4.90;;;0.82;;
20589;SDS011;10453;50.810;12.540;2023-04-01T05:43:27;1.88;;;0.90;;
20589;SDS011;10453;50.810;12.540;2023-04-01T05:47:46;5.22;;;1.33;;
20589;SDS011;10453;50.810;12.540;2023-04-01T05:52:03;4.22;;;1.23;;
20589;SDS011;10453;50.810;12.540;2023-04-01T05:56:21;4.32;;;1.10;;
20589;SDS011;10453;50.810;12.540;2023-04-01T06:00:38;3.35;;;0.80;;
20589;SDS011;10453;50.810;12.540;2023-04-01T06:05:02;3.92;;;0.90;;
20589;SDS011;10453;50.810;12.540;2023-04-01T06:09:29;5.95;;;1.02;;
20589;SDS011;10453;50.810;12.540;2023-04-01T06:23:10;2.30;;;0.90;;
20589;SDS011;10453;50.810;12.540;2023-04-01T06:32:30;3.35;;;0.80;;
20589;SDS011;10453;50.810;12.540;2023-04-01T06:37:16;4.15;;;0.93;;
20589;SDS011;10453;50.810;12.540;2023-04-01T06:41:56;3.58;;;1.15;;
20589;SDS011;10453;50.810;12.540;2023-04-01T06:46:45;2.70;;;0.90;;
20589;SDS011;10453;50.810;12.540;2023-04-01T06:55:41;3.00;;;0.70;;
20589;SDS011;10453;50.810;12.540;2023-04-01T07:00:04;5.25;;;1.33;;
20589;SDS011;10453;50.810;12.540;2023-04-01T07:04:53;3.90;;;1.00;;
20589;SDS011;10453;50.810;12.540;2023-04-01T07:09:19;18.02;;;11.85;;
20589;SDS011;10453;50.810;12.540;2023-04-01T07:18:15;6.75;;;3.30;;
20589;SDS011;10453;50.810;12.540;2023-04-01T07:22:48;4.00;;;1.25;;
20589;SDS011;10453;50.810;12.540;2023-04-01T07:27:09;5.80;;;2.35;;
20589;SDS011;10453;50.810;12.540;2023-04-01T07:36:12;3.08;;;0.95;;
20589;SDS011;10453;50.810;12.540;2023-04-01T07:41:22;5.18;;;0.90;;
20589;SDS011;10453;50.810;12.540;2023-04-01T07:50:28;3.22;;;1.27;;
20589;SDS011;10453;50.810;12.540;2023-04-01T08:08:30;5.90;;;2.20;;
20589;SDS011;10453;50.810;12.540;2023-04-01T08:22:15;5.22;;;1.00;;
20589;SDS011;10453;50.810;12.540;2023-04-01T08:26:44;10.85;;;9.25;;
20589;SDS011;10453;50.810;12.540;2023-04-01T08:50:03;1.83;;;0.65;;
20589;SDS011;10453;50.810;12.540;2023-04-01T08:58:59;2.03;;;0.52;;
20589;SDS011;10453;50.810;12.540;2023-04-01T09:03:26;3.15;;;0.60;;
20589;SDS011;10453;50.810;12.540;2023-04-01T09:08:05;2.45;;;0.50;;
20589;SDS011;10453;50.810;12.540;2023-04-01T09:49:45;0.90;;;0.30;;
20589;SDS011;10453;50.810;12.540;2023-04-01T09:54:04;1.00;;;0.70;;
20589;SDS011;10453;50.810;12.540;2023-04-01T10:08:06;1.50;;;0.70;;
20589;SDS011;10453;50.810;12.540;2023-04-01T10:12:49;1.33;;;0.50;;
20589;SDS011;10453;50.810;12.540;2023-04-01T10:22:30;1.85;;;0.60;;
20589;SDS011;10453;50.810;12.540;2023-04-01T10:27:06;2.33;;;0.68;;
20589;SDS011;10453;50.810;12.540;2023-04-01T10:31:41;4.65;;;0.80;;
20589;SDS011;10453;50.810;12.540;2023-04-01T10:40:57;2.25;;;0.50;;
20589;SDS011;10453;50.810;12.540;2023-04-01T10:45:54;1.02;;;0.40;;
20589;SDS011;10453;50.810;12.540;2023-04-01T11:00:01;0.70;;;0.30;;
20589;SDS011;10453;50.810;12.540;2023-04-01T11:19:00;1.10;;;0.50;;
20589;SDS011;10453;50.810;12.540;2023-04-01T11:24:01;1.10;;;0.43;;
20589;SDS011;10453;50.810;12.540;2023-04-01T11:42:34;1.20;;;0.40;;
20589;SDS011;10453;50.810;12.540;2023-04-01T11:51:53;0.75;;;0.40;;
20589;SDS011;10453;50.810;12.540;2023-04-01T11:56:37;2.25;;;0.60;;
20589;SDS011;10453;50.810;12.540;2023-04-01T12:01:18;0.70;;;0.55;;
20589;SDS011;10453;50.810;12.540;2023-04-01T12:10:44;4.55;;;0.50;;
20589;SDS011;10453;50.810;12.540;2023-04-01T12:15:13;0.32;;;0.32;;
20589;SDS011;10453;50.810;12.540;2023-04-01T12:19:56;0.73;;;0.40;;
20589;SDS011;10453;50.810;12.540;2023-04-01T12:24:29;1.75;;;0.60;;
20589;SDS011;10453;50.810;12.540;2023-04-01T12:29:03;2.88;;;1.00;;
20589;SDS011;10453;50.810;12.540;2023-04-01T12:56:09;1.10;;;0.57;;
20589;SDS011;10453;50.810;12.540;2023-04-01T13:00:44;0.90;;;0.50;;
20589;SDS011;10453;50.810;12.540;2023-04-01T13:05:56;2.58;;;0.70;;
20589;SDS011;10453;50.810;12.540;2023-04-01T13:10:25;1.05;;;0.65;;
20589;SDS011;10453;50.810;12.540;2023-04-01T13:19:27;1.25;;;0.50;;
20589;SDS011;10453;50.810;12.540;2023-04-01T13:24:25;1.83;;;0.60;;
20589;SDS011;10453;50.810;12.540;2023-04-01T13:29:19;1.00;;;0.52;;
20589;SDS011;10453;50.810;12.540;2023-04-01T13:33:45;1.05;;;0.40;;
20589;SDS011;10453;50.810;12.540;2023-04-01T13:38:32;0.85;;;0.50;;
20589;SDS011;10453;50.810;12.540;2023-04-01T13:42:59;0.50;;;0.40;;
20589;SDS011;10453;50.810;12.540;2023-04-01T13:57:14;0.90;;;0.80;;
20589;SDS011;10453;50.810;12.540;2023-04-01T14:20:41;3.30;;;0.95;;
20589;SDS011;10453;50.810;12.540;2023-04-01T14:30:34;0.85;;;0.55;;
20589;SDS011;10453;50.810;12.540;2023-04-01T14:48:51;4.47;;;2.40;;
20589;SDS011;10453;50.810;12.540;2023-04-01T14:57:57;0.57;;;0.40;;
20589;SDS011;10453;50.810;12.540;2023-04-01T15:11:24;1.02;;;0.40;;
20589;SDS011;10453;50.810;12.540;2023-04-01T15:15:58;0.40;;;0.30;;
20589;SDS011;10453;50.810;12.540;2023-04-01T15:20:22;2.33;;;0.50;;
20589;SDS011;10453;50.810;12.540;2023-04-01T15:39:02;2.13;;;1.20;;
20589;SDS011;10453;50.810;12.540;2023-04-01T15:43:30;1.48;;;0.50;;
20589;SDS011;10453;50.810;12.540;2023-04-01T15:48:12;0.40;;;0.40;;
20589;SDS011;10453;50.810;12.540;2023-04-01T15:57:40;1.13;;;0.70;;
20589;SDS011;10453;50.810;12.540;2023-04-01T16:11:57;1.10;;;0.60;;
20589;SDS011;10453;50.810;12.540;2023-04-01T16:26:13;1.20;;;1.00;;
20589;SDS011;10453;50.810;12.540;2023-04-01T16:30:36;1.70;;;0.90;;
20589;SDS011;10453;50.810;12.540;2023-04-01T16:44:26;1.80;;;1.40;;
20589;SDS011;10453;50.810;12.540;2023-04-01T16:49:00;1.20;;;1.10;;
20589;SDS011;10453;50.810;12.540;2023-04-01T16:53:42;1.33;;;1.08;;
20589;SDS011;10453;50.810;12.540;2023-04-01T16:58:00;1.77;;;1.02;;
20589;SDS011;10453;50.810;12.540;2023-04-01T17:02:20;1.48;;;1.15;;
20589;SDS011;10453;50.810;12.540;2023-04-01T17:06:47;1.83;;;1.33;;
20589;SDS011;10453;50.810;12.540;2023-04-01T17:24:49;1.55;;;1.20;;
20589;SDS011;10453;50.810;12.540;2023-04-01T17:33:48;1.17;;;1.00;;
20589;SDS011;10453;50.810;12.540;2023-04-01T17:43:34;4.05;;;1.92;;
20589;SDS011;10453;50.810;12.540;2023-04-01T18:16:02;2.05;;;1.23;;
20589;SDS011;10453;50.810;12.540;2023-04-01T18:21:01;2.75;;;1.88;;
20589;SDS011;10453;50.810;12.540;2023-04-01T18:25:42;2.03;;;1.70;;
20589;SDS011;10453;50.810;12.540;2023-04-01T18:39:40;3.72;;;2.08;;
20589;SDS011;10453;50.810;12.540;2023-04-01T18:53:24;4.68;;;3.00;;
20589;SDS011;10453;50.810;12.540;2023-04-01T18:57:51;5.38;;;2.20;;
20589;SDS011;10453;50.810;12.540;2023-04-01T19:11:56;4.32;;;2.15;;
20589;SDS011;10453;50.810;12.540;2023-04-01T19:16:36;3.25;;;2.10;;
20589;SDS011;10453;50.810;12.540;2023-04-01T19:21:11;3.38;;;2.72;;
20589;SDS011;10453;50.810;12.540;2023-04-01T19:25:48;9.85;;;6.80;;
20589;SDS011;10453;50.810;12.540;2023-04-01T19:30:14;8.55;;;6.05;;
20589;SDS011;10453;50.810;12.540;2023-04-01T19:43:48;5.55;;;4.55;;
20589;SDS011;10453;50.810;12.540;2023-04-01T20:02:43;8.38;;;4.78;;
20589;SDS011;10453;50.810;12.540;2023-04-01T20:07:54;6.70;;;5.45;;
20589;SDS011;10453;50.810;12.540;2023-04-01T20:25:58;5.80;;;4.60;;
20589;SDS011;10453;50.810;12.540;2023-04-01T20:34:59;8.65;;;6.45;;
20589;SDS011;10453;50.810;12.540;2023-04-01T20:44:06;8.73;;;7.07;;
20589;SDS011;10453;50.810;12.540;2023-04-01T20:48:31;12.15;;;9.40;;
20589;SDS011;10453;50.810;12.540;2023-04-01T20:57:35;11.55;;;5.85;;
20589;SDS011;10453;50.810;12.540;2023-04-01T21:11:11;5.53;;;4.00;;
20589;SDS011;10453;50.810;12.540;2023-04-01T21:16:01;3.88;;;3.15;;
20589;SDS011;10453;50.810;12.540;2023-04-01T21:20:43;4.18;;;3.42;;
20589;SDS011;10453;50.810;12.540;2023-04-01T21:30:44;4.18;;;3.65;;
20589;SDS011;10453;50.810;12.540;2023-04-01T21:34:43;4.40;;;2.03;;
20589;SDS011;10453;50.810;12.540;2023-04-01T21:39:05;4.97;;;2.35;;
20589;SDS011;10453;50.810;12.540;2023-04-01T21:48:05;3.15;;;2.60;;
20589;SDS011;10453;50.810;12.540;2023-04-01T21:57:36;4.10;;;3.15;;
20589;SDS011;10453;50.810;12.540;2023-04-01T22:02:08;3.05;;;2.50;;
20589;SDS011;10453;50.810;12.540;2023-04-01T22:06:45;2.38;;;2.17;;
20589;SDS011;10453;50.810;12.540;2023-04-01T22:20:46;3.92;;;3.10;;
20589;SDS011;10453;50.810;12.540;2023-04-01T22:30:10;2.50;;;2.10;;
20589;SDS011;10453;50.810;12.540;2023-04-01T22:34:49;5.15;;;2.40;;
20589;SDS011;10453;50.810;12.540;2023-04-01T22:39:36;5.25;;;3.10;;
20589;SDS011;10453;50.810;12.540;2023-04-01T22:44:09;6.00;;;3.70;;
20589;SDS011;10453;50.810;12.540;2023-04-01T22:53:25;8.80;;;5.80;;
20589;SDS011;10453;50.810;12.540;2023-04-01T22:58:03;8.68;;;6.55;;
20589;SDS011;10453;50.810;12.540;2023-04-01T23:02:31;6.30;;;4.57;;
20589;SDS011;10453;50.810;12.540;2023-04-01T23:06:55;4.72;;;3.95;;
20589;SDS011;10453;50.810;12.540;2023-04-01T23:15:46;4.18;;;3.53;;
20589;SDS011;10453;50.810;12.540;2023-04-01T23:20:10;5.67;;;4.13;;
20589;SDS011;10453;50.810;12.540;2023-04-01T23:24:54;8.07;;;5.03;;
20589;SDS011;10453;50.810;12.540;2023-04-01T23:29:33;6.78;;;4.35;;
20589;SDS011;10453;50.810;12.540;2023-04-01T23:33:56;6.25;;;4.90;;
20589;SDS011;10453;50.810;12.540;2023-04-01T23:38:17;8.13;;;5.47;;
20589;SDS011;10453;50.810;12.540;2023-04-01T23:42:40;6.78;;;4.97;;
20589;SDS011;10453;50.810;12.540;2023-04-01T23:46:58;7.00;;;4.85;;
20589;SDS011;10453;50.810;12.540;2023-04-01T23:51:18;6.18;;;4.60;;
20589;SDS011;10453;50.810;12.540;2023-04-01T23:55:37;6.38;;;4.47;;
20589;SDS011;10453;50.810;12.540;2023-04-01T23:59:59;5.40;;;4.32;;
